KEHO

Details ICAO KEHO
Name Shelby Muni
Region United States
Timezone America/New_York (UTC-4.0)
Plans Departing 5
Arriving 5
Stats Elevation 847 ft / 258 m (AMSL)
Location 35.255089° -81.600931°
Runways 1
Magnetic Variation 7.287° W
Sunrise 2018-05-21 10:19:34 UTC / 2018-05-21 06:19:34 Local
Sunset 2018-05-22 00:29:18 UTC / 2018-05-21 20:29:18 Local
Advertisement - Login to hide

Runways

ID Width Length Bearing (true) Bearing (mag) Surface Threshold Offset Overrun Length
05 100 ft / 30 m 5,198 ft / 1,585 m 46.72° 54.01° Asphalt 0 ft / 0 m 0 ft / 0 m
23 100 ft / 30 m 5,198 ft / 1,585 m 226.73° 234.02° Asphalt 0 ft / 0 m 0 ft / 0 m

Map

Weather


0- 5 10 15 20 25 30 35+ Temperature / ° C

Clouds and Precipitation
Forecast for 2018-05-21 12:00 UTC. Updated 2 hours ago

Ground ~20,000 ft ~40,000 ft Winds

METAR

KEHO 211300Z AUTO 00000KT 10SM OVC120 20/18 A3018 RMK AO2 T01950182

TAF

Not found

Frequencies

Recorded 118.42 MHz AWOS 3
Approach 134.75 MHz CHARLOTTE APP/DEP
Unicom 122.80 MHz CTAF/UNICOM
Warning: Do not use this data for real-world aviation or navigation. No guarantee of current accuracy is given.